createdAt,value
2023-01-22T00:01:12.358Z,53.69
2023-01-22T00:03:41.263Z,53.84
2023-01-22T00:06:09.620Z,53.64
2023-01-22T00:08:37.240Z,53.92
2023-01-22T00:11:04.914Z,53.65
2023-01-22T00:13:32.123Z,53.32
2023-01-22T00:15:59.764Z,54.10
2023-01-22T00:18:27.059Z,53.46
2023-01-22T00:20:55.066Z,54.05
2023-01-22T00:23:23.523Z,53.41
2023-01-22T00:25:51.094Z,53.66
2023-01-22T00:28:17.869Z,53.45
2023-01-22T00:30:44.661Z,53.55
2023-01-22T00:33:11.880Z,53.41
2023-01-22T00:35:39.522Z,53.48
2023-01-22T00:38:06.371Z,52.85
2023-01-22T00:40:33.162Z,53.23
2023-01-22T00:42:59.945Z,52.97
2023-01-22T00:45:26.761Z,53.12
2023-01-22T00:47:53.556Z,53.76
2023-01-22T00:50:20.766Z,52.94
2023-01-22T00:52:47.708Z,53.10
2023-01-22T00:55:14.525Z,52.90
2023-01-22T00:57:41.268Z,53.06
2023-01-22T01:00:09.332Z,53.28
2023-01-22T01:02:58.672Z,53.64
2023-01-22T01:05:25.748Z,53.23
2023-01-22T01:07:52.688Z,53.22
2023-01-22T01:10:20.175Z,53.17
2023-01-22T01:12:47.187Z,53.29
2023-01-22T01:15:13.963Z,53.35
2023-01-22T01:17:40.804Z,53.54
2023-01-22T01:20:08.677Z,53.46
2023-01-22T01:22:35.505Z,54.21
2023-01-22T01:25:02.423Z,53.76
2023-01-22T01:27:31.534Z,53.64
2023-01-22T01:29:58.953Z,53.72
2023-01-22T01:32:26.033Z,53.26
2023-01-22T01:34:53.269Z,53.59
2023-01-22T01:37:20.071Z,53.88
2023-01-22T01:39:47.891Z,53.39
2023-01-22T01:42:14.673Z,53.59
2023-01-22T01:44:42.946Z,53.11
2023-01-22T01:47:32.102Z,53.98
2023-01-22T01:49:58.868Z,53.26
2023-01-22T01:52:25.752Z,53.67
2023-01-22T01:54:55.830Z,53.30
2023-01-22T01:57:28.276Z,53.97
2023-01-22T01:59:59.283Z,53.75
2023-01-22T02:02:26.471Z,53.54
2023-01-22T02:04:54.351Z,53.13
2023-01-22T02:07:21.271Z,53.91
2023-01-22T02:09:48.227Z,53.73
2023-01-22T02:12:15.068Z,53.71
2023-01-22T02:14:43.865Z,53.63
2023-01-22T02:17:21.400Z,53.64
2023-01-22T02:19:50.846Z,53.77
2023-01-22T02:22:24.324Z,53.55
2023-01-22T02:24:51.487Z,53.83
2023-01-22T02:27:19.150Z,54.13
2023-01-22T02:29:47.758Z,54.04
2023-01-22T02:32:14.816Z,53.40
2023-01-22T02:34:41.755Z,53.82
2023-01-22T02:37:10.003Z,53.51
2023-01-22T02:39:36.788Z,53.46
2023-01-22T02:42:06.369Z,53.79
2023-01-22T02:44:33.295Z,54.10
2023-01-22T02:47:00.463Z,53.77
2023-01-22T02:49:27.763Z,53.79
2023-01-22T02:51:54.550Z,53.74
2023-01-22T02:54:22.369Z,53.99
2023-01-22T02:56:50.398Z,54.11
2023-01-22T02:59:17.362Z,53.71
2023-01-22T03:01:44.200Z,54.38
2023-01-22T03:04:11.302Z,54.05
2023-01-22T03:06:41.850Z,53.75
2023-01-22T03:09:12.580Z,54.20
2023-01-22T03:11:42.111Z,54.16
2023-01-22T03:14:32.717Z,53.72
2023-01-22T03:17:19.150Z,54.02
2023-01-22T03:20:04.457Z,54.08
2023-01-22T03:22:32.070Z,54.30
2023-01-22T03:25:01.152Z,53.86
2023-01-22T03:27:31.026Z,54.20
2023-01-22T03:29:58.620Z,53.70
2023-01-22T03:32:25.904Z,54.04
2023-01-22T03:34:53.730Z,54.19
2023-01-22T03:37:22.083Z,54.28
2023-01-22T03:39:52.063Z,53.91
2023-01-22T03:42:26.059Z,54.31
2023-01-22T03:44:52.880Z,54.39
2023-01-22T03:47:20.241Z,54.16
2023-01-22T03:49:47.003Z,53.94
2023-01-22T03:52:13.825Z,54.07
2023-01-22T03:54:40.779Z,54.25
2023-01-22T03:57:09.659Z,54.31
2023-01-22T03:59:39.028Z,54.59
2023-01-22T04:02:06.941Z,54.43
2023-01-22T04:04:41.265Z,54.04
2023-01-22T04:07:08.182Z,54.28
2023-01-22T04:09:34.963Z,53.90
2023-01-22T04:12:02.582Z,54.46
2023-01-22T04:14:29.537Z,53.95
2023-01-22T04:16:59.196Z,54.10
2023-01-22T04:19:50.083Z,54.46
2023-01-22T04:22:35.945Z,54.09
2023-01-22T04:25:06.324Z,53.86
2023-01-22T04:27:37.567Z,54.28
2023-01-22T04:30:08.284Z,54.38
2023-01-22T04:32:35.633Z,54.54
2023-01-22T04:35:16.474Z,54.26
2023-01-22T04:37:48.907Z,53.63
2023-01-22T04:40:16.577Z,53.78
2023-01-22T04:42:45.037Z,54.43
2023-01-22T04:45:12.443Z,53.60
2023-01-22T04:47:44.987Z,54.03
2023-01-22T04:50:23.212Z,53.61
2023-01-22T04:52:52.567Z,53.58
2023-01-22T04:55:20.526Z,53.70
2023-01-22T04:58:00.135Z,54.08
2023-01-22T05:00:29.057Z,53.91
2023-01-22T05:02:58.202Z,53.94
2023-01-22T05:05:27.116Z,53.98
2023-01-22T05:07:54.120Z,54.09
2023-01-22T05:10:22.991Z,53.64
2023-01-22T05:12:50.574Z,53.68
2023-01-22T05:15:24.543Z,53.51
2023-01-22T05:17:54.476Z,53.97
2023-01-22T05:20:21.679Z,53.37
2023-01-22T05:22:49.249Z,53.79
2023-01-22T05:25:18.971Z,53.53
2023-01-22T05:27:46.418Z,53.89
2023-01-22T05:30:18.959Z,53.48
2023-01-22T05:32:57.623Z,53.59
2023-01-22T05:35:25.486Z,53.76
2023-01-22T05:37:52.317Z,53.34
2023-01-22T05:40:20.484Z,53.35
2023-01-22T05:42:47.397Z,53.79
2023-01-22T05:45:14.579Z,53.60
2023-01-22T05:47:55.700Z,53.31
2023-01-22T05:50:35.306Z,53.64
2023-01-22T05:53:08.292Z,53.71
2023-01-22T05:55:35.830Z,53.83
2023-01-22T05:58:06.266Z,53.70
2023-01-22T06:00:33.899Z,53.53
2023-01-22T06:03:04.141Z,53.28
2023-01-22T06:05:40.731Z,53.34
2023-01-22T06:08:08.365Z,53.36
2023-01-22T06:10:42.621Z,53.24
2023-01-22T06:13:09.424Z,52.96
2023-01-22T06:15:36.317Z,53.01
2023-01-22T06:18:23.315Z,53.34
2023-01-22T06:20:51.039Z,53.06
2023-01-22T06:23:19.627Z,52.84
2023-01-22T06:25:53.236Z,53.24
2023-01-22T06:28:20.625Z,53.15
2023-01-22T06:30:47.915Z,53.26
2023-01-22T06:33:15.035Z,53.00
2023-01-22T06:35:43.030Z,53.19
2023-01-22T06:38:09.834Z,52.60
2023-01-22T06:40:36.881Z,52.83
2023-01-22T06:43:10.586Z,53.01
2023-01-22T06:45:38.679Z,52.90
2023-01-22T06:48:08.330Z,52.39
2023-01-22T06:50:35.218Z,52.35
2023-01-22T06:53:02.621Z,52.27
2023-01-22T06:55:29.484Z,52.64
2023-01-22T06:57:57.251Z,52.57
2023-01-22T07:00:24.378Z,52.27
2023-01-22T07:02:51.742Z,52.34
2023-01-22T07:05:23.063Z,52.76
2023-01-22T07:07:54.522Z,52.55
2023-01-22T07:10:22.071Z,52.40
2023-01-22T07:12:49.959Z,52.65
2023-01-22T07:15:16.994Z,52.64
2023-01-22T07:17:43.767Z,52.42
2023-01-22T07:20:11.565Z,52.64
2023-01-22T07:22:38.358Z,52.50
2023-01-22T07:25:05.859Z,52.24
2023-01-22T07:27:34.792Z,52.77
2023-01-22T07:30:01.597Z,52.48
2023-01-22T07:32:28.346Z,52.78
2023-01-22T07:34:55.176Z,52.69
2023-01-22T07:37:22.008Z,52.54
2023-01-22T07:39:49.033Z,52.56
2023-01-22T07:42:17.158Z,52.53
2023-01-22T07:44:43.942Z,52.71
2023-01-22T07:47:10.755Z,52.68
2023-01-22T07:49:37.552Z,52.42
2023-01-22T07:52:04.791Z,52.69
2023-01-22T07:54:36.037Z,52.49
2023-01-22T07:57:04.656Z,52.57
2023-01-22T07:59:31.545Z,52.50
2023-01-22T08:01:58.453Z,52.52
2023-01-22T08:04:25.360Z,52.69
2023-01-22T08:06:52.563Z,52.41
2023-01-22T08:09:24.682Z,52.80
2023-01-22T08:11:52.741Z,52.49
2023-01-22T08:14:20.143Z,52.59
2023-01-22T08:16:47.245Z,52.78
2023-01-22T08:19:14.628Z,52.49
2023-01-22T08:21:41.509Z,52.37
2023-01-22T08:24:10.233Z,52.24
2023-01-22T08:26:37.577Z,52.70
2023-01-22T08:29:07.429Z,52.62
2023-01-22T08:31:35.022Z,52.59
2023-01-22T08:34:01.829Z,52.61
2023-01-22T08:36:28.640Z,52.60
2023-01-22T08:38:55.608Z,52.92
2023-01-22T08:41:22.771Z,52.65
2023-01-22T08:43:51.189Z,52.41
2023-01-22T08:46:17.993Z,52.68
2023-01-22T08:48:45.012Z,52.55
2023-01-22T08:51:12.667Z,52.61
2023-01-22T08:53:39.483Z,52.48
2023-01-22T08:56:07.096Z,52.32
2023-01-22T08:58:33.917Z,52.34
2023-01-22T09:01:00.746Z,52.54
2023-01-22T09:03:28.743Z,52.34
2023-01-22T09:05:58.841Z,52.37
2023-01-22T09:08:25.636Z,52.65
2023-01-22T09:10:52.464Z,52.35
2023-01-22T09:13:19.261Z,52.66
2023-01-22T09:15:46.144Z,52.85
2023-01-22T09:18:12.984Z,52.71
2023-01-22T09:20:39.745Z,52.86
2023-01-22T09:23:07.358Z,52.80
2023-01-22T09:25:34.151Z,52.74
2023-01-22T09:28:01.796Z,52.58
2023-01-22T09:30:30.483Z,52.85
2023-01-22T09:32:57.687Z,52.69
2023-01-22T09:35:24.807Z,52.64
2023-01-22T09:37:51.616Z,52.70
2023-01-22T09:40:26.255Z,52.83
2023-01-22T09:43:02.952Z,52.62
2023-01-22T09:45:29.772Z,52.73
2023-01-22T09:48:00.674Z,52.73
2023-01-22T09:50:33.386Z,52.87
2023-01-22T09:53:06.227Z,52.85
2023-01-22T09:55:44.157Z,52.81
2023-01-22T09:58:24.521Z,52.79
2023-01-22T10:01:00.706Z,52.91
2023-01-22T10:03:39.640Z,53.06
2023-01-22T10:06:23.768Z,52.84
2023-01-22T10:09:15.970Z,52.81
2023-01-22T10:11:50.387Z,52.69
2023-01-22T10:14:21.433Z,52.45
2023-01-22T10:16:49.105Z,52.55
2023-01-22T10:19:32.727Z,52.63
2023-01-22T10:22:06.882Z,52.49
2023-01-22T10:24:33.665Z,52.71
2023-01-22T10:27:16.288Z,52.75
2023-01-22T10:30:15.147Z,52.59
2023-01-22T10:32:41.977Z,52.50
2023-01-22T10:35:11.537Z,52.49
2023-01-22T10:37:51.714Z,52.69
2023-01-22T10:40:44.349Z,52.76
2023-01-22T10:43:17.660Z,52.67
2023-01-22T10:46:04.801Z,52.69
2023-01-22T10:48:32.948Z,52.73
2023-01-22T10:51:19.702Z,52.33
2023-01-22T10:53:51.707Z,52.51
2023-01-22T10:56:35.103Z,52.50
2023-01-22T10:59:27.482Z,52.32
2023-01-22T11:02:21.792Z,52.25
2023-01-22T11:04:48.589Z,52.18
2023-01-22T11:07:23.731Z,52.01
2023-01-22T11:10:19.602Z,52.22
2023-01-22T11:13:07.127Z,52.14
2023-01-22T11:15:58.060Z,52.07
2023-01-22T11:18:43.074Z,52.26
2023-01-22T11:21:20.679Z,52.20
2023-01-22T11:24:14.364Z,52.29
2023-01-22T11:27:08.089Z,52.13
2023-01-22T11:29:50.642Z,52.12
2023-01-22T11:32:37.764Z,52.07
2023-01-22T11:35:32.872Z,52.23
2023-01-22T11:38:25.417Z,51.73
2023-01-22T11:41:11.986Z,52.01
2023-01-22T11:44:16.391Z,52.17
2023-01-22T11:47:15.674Z,51.98
2023-01-22T11:50:26.111Z,52.02
2023-01-22T11:53:28.954Z,52.02
2023-01-22T11:56:42.597Z,52.28
2023-01-22T11:59:55.551Z,52.10
2023-01-22T12:03:00.295Z,52.05
2023-01-22T12:05:38.991Z,52.08
2023-01-22T12:08:54.364Z,52.14
2023-01-22T12:11:53.161Z,52.11
2023-01-22T12:14:40.961Z,51.96
2023-01-22T12:17:29.327Z,51.96
2023-01-22T12:20:43.635Z,51.95
2023-01-22T12:23:22.654Z,51.96
2023-01-22T12:26:00.347Z,51.91
2023-01-22T12:28:31.518Z,52.00
2023-01-22T12:31:11.275Z,51.72
2023-01-22T12:33:41.659Z,51.63
2023-01-22T12:36:13.683Z,51.65
2023-01-22T12:38:57.368Z,51.59
2023-01-22T12:41:49.934Z,51.56
2023-01-22T12:44:55.138Z,51.50
2023-01-22T12:47:37.210Z,51.58
2023-01-22T12:50:04.979Z,51.63
2023-01-22T12:52:39.441Z,51.63
2023-01-22T12:55:32.062Z,51.67
2023-01-22T12:57:59.233Z,51.51
2023-01-22T13:00:38.933Z,51.36
2023-01-22T13:03:32.127Z,51.60
2023-01-22T13:06:02.228Z,51.34
2023-01-22T13:08:42.970Z,51.57
2023-01-22T13:11:29.982Z,51.52
2023-01-22T13:14:15.381Z,51.67
2023-01-22T13:16:55.411Z,51.42
2023-01-22T13:19:25.982Z,51.60
2023-01-22T13:21:53.292Z,51.37
2023-01-22T13:24:21.686Z,51.45
2023-01-22T13:27:00.896Z,51.47
2023-01-22T13:29:37.399Z,51.20
2023-01-22T13:32:16.712Z,51.15
2023-01-22T13:34:43.470Z,51.09
2023-01-22T13:37:24.901Z,50.83
2023-01-22T13:39:51.813Z,50.62
2023-01-22T13:42:19.050Z,50.43
2023-01-22T13:44:50.902Z,50.78
2023-01-22T13:47:32.396Z,50.59
2023-01-22T13:49:59.734Z,50.72
2023-01-22T13:52:28.486Z,50.18
2023-01-22T13:55:05.644Z,50.20
2023-01-22T13:57:32.794Z,50.25
2023-01-22T14:00:03.758Z,50.27
2023-01-22T14:02:35.296Z,50.36
2023-01-22T14:05:02.985Z,50.07
2023-01-22T14:07:37.846Z,50.22
2023-01-22T14:10:24.518Z,49.97
2023-01-22T14:13:13.229Z,49.95
2023-01-22T14:15:41.052Z,50.05
2023-01-22T14:18:17.353Z,50.20
2023-01-22T14:20:47.074Z,50.38
2023-01-22T14:23:15.061Z,50.29
2023-01-22T14:25:45.412Z,50.17
2023-01-22T14:28:12.477Z,50.33
2023-01-22T14:30:41.430Z,50.18
2023-01-22T14:33:23.819Z,50.09
2023-01-22T14:35:51.774Z,50.18
2023-01-22T14:38:18.859Z,50.26
2023-01-22T14:40:45.823Z,50.41
2023-01-22T14:43:12.794Z,50.59
2023-01-22T14:45:41.623Z,50.06
2023-01-22T14:48:16.524Z,50.03
2023-01-22T14:50:43.737Z,50.39
2023-01-22T14:53:11.493Z,50.11
2023-01-22T14:55:39.319Z,50.32
2023-01-22T14:58:06.585Z,50.23
2023-01-22T15:00:33.455Z,50.27
2023-01-22T15:03:00.815Z,50.17
2023-01-22T15:05:28.580Z,50.00
2023-01-22T15:07:55.565Z,50.17
2023-01-22T15:10:22.384Z,49.94
2023-01-22T15:12:52.600Z,50.26
2023-01-22T15:15:26.832Z,50.22
2023-01-22T15:17:55.257Z,50.37
2023-01-22T15:20:22.681Z,50.08
2023-01-22T15:22:49.763Z,50.11
2023-01-22T15:25:18.372Z,50.19
2023-01-22T15:27:45.488Z,50.43
2023-01-22T15:30:13.750Z,50.39
2023-01-22T15:32:40.875Z,50.51
2023-01-22T15:35:08.198Z,50.44
2023-01-22T15:37:35.106Z,50.33
2023-01-22T15:40:02.250Z,50.15
2023-01-22T15:42:29.117Z,50.45
2023-01-22T15:44:56.019Z,50.22
2023-01-22T15:47:22.846Z,50.41
2023-01-22T15:49:49.627Z,50.47
2023-01-22T15:52:16.502Z,50.33
2023-01-22T15:54:43.414Z,50.56
2023-01-22T15:57:10.237Z,50.17
2023-01-22T15:59:38.715Z,50.32
2023-01-22T16:02:05.795Z,50.25
2023-01-22T16:04:32.638Z,50.54
2023-01-22T16:06:59.425Z,50.33
2023-01-22T16:09:26.254Z,50.76
2023-01-22T16:11:53.083Z,50.57
2023-01-22T16:14:19.932Z,50.49
2023-01-22T16:16:46.815Z,50.52
2023-01-22T16:19:13.815Z,50.70
2023-01-22T16:21:40.704Z,50.80
2023-01-22T16:24:07.770Z,50.81
2023-01-22T16:26:36.804Z,50.55
2023-01-22T16:29:05.467Z,50.90
2023-01-22T16:31:36.033Z,50.90
2023-01-22T16:34:13.814Z,50.73
2023-01-22T16:36:42.589Z,50.99
2023-01-22T16:39:17.269Z,51.01
2023-01-22T16:41:48.618Z,51.15
2023-01-22T16:44:27.057Z,51.09
2023-01-22T16:46:57.037Z,51.11
2023-01-22T16:49:29.499Z,51.05
2023-01-22T16:52:12.982Z,51.41
2023-01-22T16:54:47.900Z,51.31
2023-01-22T16:57:14.740Z,51.36
2023-01-22T16:59:41.537Z,51.41
2023-01-22T17:02:14.560Z,51.78
2023-01-22T17:04:41.484Z,51.68
2023-01-22T17:07:15.408Z,51.63
2023-01-22T17:09:47.890Z,51.53
2023-01-22T17:12:15.009Z,51.78
2023-01-22T17:14:41.845Z,51.70
2023-01-22T17:17:09.552Z,51.53
2023-01-22T17:19:36.729Z,51.75
2023-01-22T17:22:04.357Z,51.61
2023-01-22T17:24:31.667Z,51.70
2023-01-22T17:27:02.133Z,51.62
2023-01-22T17:29:34.716Z,51.81
2023-01-22T17:32:02.932Z,51.75
2023-01-22T17:34:29.989Z,51.80
2023-01-22T17:36:56.857Z,51.71
2023-01-22T17:39:24.229Z,51.79
2023-01-22T17:41:51.005Z,51.76
2023-01-22T17:44:17.821Z,51.85
2023-01-22T17:46:44.692Z,51.91
2023-01-22T17:49:11.492Z,52.08
2023-01-22T17:51:38.927Z,51.76
2023-01-22T17:54:06.079Z,52.15
2023-01-22T17:56:37.653Z,52.40
2023-01-22T17:59:06.925Z,52.23
2023-01-22T18:01:35.750Z,52.29
2023-01-22T18:04:09.793Z,52.40
2023-01-22T18:06:38.078Z,52.40
2023-01-22T18:09:06.195Z,52.50
2023-01-22T18:11:34.531Z,52.51
2023-01-22T18:14:08.000Z,52.59
2023-01-22T18:16:38.408Z,52.54
2023-01-22T18:19:07.284Z,52.63
2023-01-22T18:21:36.195Z,52.76
2023-01-22T18:24:05.827Z,52.75
2023-01-22T18:26:33.041Z,52.54
2023-01-22T18:29:00.601Z,52.64
2023-01-22T18:31:29.800Z,52.48
2023-01-22T18:34:02.432Z,52.64
2023-01-22T18:36:32.770Z,52.65
2023-01-22T18:39:02.870Z,52.67
2023-01-22T18:41:30.620Z,52.67
2023-01-22T18:44:00.034Z,52.72
2023-01-22T18:46:30.593Z,52.69
2023-01-22T18:49:05.073Z,52.77
2023-01-22T18:51:33.364Z,52.71
2023-01-22T18:54:02.995Z,52.57
2023-01-22T18:56:29.752Z,52.77
2023-01-22T18:58:58.066Z,52.65
2023-01-22T19:01:28.983Z,52.71
2023-01-22T19:03:58.950Z,52.87
2023-01-22T19:06:29.780Z,52.84
2023-01-22T19:09:04.052Z,53.07
2023-01-22T19:11:35.612Z,52.88
2023-01-22T19:14:05.979Z,52.89
2023-01-22T19:16:33.764Z,53.05
2023-01-22T19:19:11.026Z,53.05
2023-01-22T19:21:40.573Z,53.06
2023-01-22T19:24:08.745Z,53.08
2023-01-22T19:26:37.250Z,52.93
2023-01-22T19:29:12.629Z,53.04
2023-01-22T19:31:46.816Z,52.95
2023-01-22T19:34:23.246Z,53.00
2023-01-22T19:36:57.559Z,53.08
2023-01-22T19:39:25.735Z,53.00
2023-01-22T19:41:52.585Z,52.95
2023-01-22T19:44:19.524Z,52.83
2023-01-22T19:46:46.634Z,52.92
2023-01-22T19:49:13.738Z,52.71
2023-01-22T19:51:41.033Z,52.81
2023-01-22T19:54:08.815Z,52.67
2023-01-22T19:56:37.510Z,52.61
2023-01-22T19:59:08.174Z,52.63
2023-01-22T20:01:36.773Z,52.52
2023-01-22T20:04:08.816Z,52.37
2023-01-22T20:06:35.748Z,52.42
2023-01-22T20:09:03.414Z,52.41
2023-01-22T20:11:30.282Z,52.36
2023-01-22T20:13:59.337Z,52.41
2023-01-22T20:16:29.105Z,52.38
2023-01-22T20:18:57.499Z,52.16
2023-01-22T20:21:26.773Z,52.07
2023-01-22T20:23:54.273Z,52.25
2023-01-22T20:26:22.810Z,52.16
2023-01-22T20:28:50.473Z,52.11
2023-01-22T20:31:23.164Z,52.08
2023-01-22T20:33:56.833Z,52.08
2023-01-22T20:36:27.731Z,52.00
2023-01-22T20:38:54.881Z,52.08
2023-01-22T20:41:24.772Z,51.90
2023-01-22T20:43:54.099Z,51.96
2023-01-22T20:46:24.211Z,52.18
2023-01-22T20:48:52.027Z,52.27
2023-01-22T20:51:20.751Z,51.97
2023-01-22T20:53:49.414Z,52.11
2023-01-22T20:56:27.128Z,52.04
2023-01-22T20:59:03.697Z,52.21
2023-01-22T21:01:31.488Z,52.17
2023-01-22T21:03:59.564Z,52.06
2023-01-22T21:06:30.115Z,52.04
2023-01-22T21:08:58.742Z,52.16
2023-01-22T21:11:28.218Z,52.22
2023-01-22T21:13:59.336Z,52.05
2023-01-22T21:16:35.419Z,52.61
2023-01-22T21:19:08.488Z,52.25
2023-01-22T21:21:36.337Z,52.26
2023-01-22T21:24:03.424Z,52.07
2023-01-22T21:26:32.343Z,52.12
2023-01-22T21:29:04.736Z,52.05
2023-01-22T21:31:31.585Z,52.05
2023-01-22T21:34:04.232Z,52.17
2023-01-22T21:36:40.360Z,51.89
2023-01-22T21:39:14.231Z,52.05
2023-01-22T21:41:42.764Z,52.23
2023-01-22T21:44:32.634Z,52.26
2023-01-22T21:46:59.333Z,52.19
2023-01-22T21:49:27.134Z,52.19
2023-01-22T21:52:00.330Z,52.46
2023-01-22T21:54:35.274Z,52.34
2023-01-22T21:57:02.814Z,52.25
2023-01-22T21:59:29.935Z,52.25
2023-01-22T22:01:57.342Z,52.07
2023-01-22T22:04:26.784Z,52.35
2023-01-22T22:06:53.776Z,52.25
2023-01-22T22:09:27.002Z,52.35
2023-01-22T22:11:59.658Z,52.14
2023-01-22T22:14:26.664Z,52.13
2023-01-22T22:16:54.097Z,52.30
2023-01-22T22:19:22.217Z,52.14
2023-01-22T22:21:50.907Z,52.29
2023-01-22T22:24:18.966Z,52.22
2023-01-22T22:26:45.844Z,52.18
2023-01-22T22:29:12.633Z,52.19
2023-01-22T22:31:39.854Z,52.19
2023-01-22T22:34:06.773Z,52.15
2023-01-22T22:36:33.933Z,51.91
2023-01-22T22:39:02.132Z,52.14
2023-01-22T22:41:32.038Z,52.02
2023-01-22T22:43:58.898Z,52.43
2023-01-22T22:46:35.339Z,51.91
2023-01-22T22:49:03.397Z,52.04
2023-01-22T22:51:39.171Z,51.96
2023-01-22T22:54:26.279Z,52.05
2023-01-22T22:56:53.174Z,51.91
2023-01-22T22:59:20.832Z,51.80
2023-01-22T23:01:49.501Z,52.13
2023-01-22T23:04:16.546Z,52.11
2023-01-22T23:06:45.224Z,52.11
2023-01-22T23:09:20.605Z,52.17
2023-01-22T23:11:51.383Z,52.00
2023-01-22T23:14:18.283Z,52.06
2023-01-22T23:16:45.161Z,52.19
2023-01-22T23:19:22.127Z,51.97
2023-01-22T23:21:55.715Z,52.03
2023-01-22T23:24:22.853Z,52.29
2023-01-22T23:26:50.209Z,51.94
2023-01-22T23:29:22.697Z,52.17
2023-01-22T23:31:50.019Z,51.91
2023-01-22T23:34:19.953Z,51.93
2023-01-22T23:36:48.840Z,51.79
2023-01-22T23:39:19.315Z,51.64
2023-01-22T23:41:46.140Z,51.85
2023-01-22T23:44:13.147Z,51.62
2023-01-22T23:46:40.975Z,51.57
2023-01-22T23:49:07.871Z,51.22
2023-01-22T23:51:34.677Z,51.60
2023-01-22T23:54:01.493Z,51.46
2023-01-22T23:56:31.621Z,51.43
2023-01-22T23:58:59.378Z,51.47
